sensor_id;sensor_type;location;lat;lon;timestamp;pressure;altitude;pressure_sealevel;temperature;humidity
19526;BME280;9907;42.676;26.348;2023-01-27T00:01:50;98247.50;;;5.74;100.00
19526;BME280;9907;42.676;26.348;2023-01-27T00:04:15;98253.91;;;5.72;100.00
19526;BME280;9907;42.676;26.348;2023-01-27T00:06:41;98249.91;;;5.77;100.00
19526;BME280;9907;42.676;26.348;2023-01-27T00:09:06;98256.91;;;5.78;100.00
19526;BME280;9907;42.676;26.348;2023-01-27T00:11:32;98257.75;;;5.79;100.00
19526;BME280;9907;42.676;26.348;2023-01-27T00:14:16;98281.00;;;5.86;100.00
19526;BME280;9907;42.676;26.348;2023-01-27T00:16:41;98258.31;;;5.94;100.00
19526;BME280;9907;42.676;26.348;2023-01-27T00:19:06;98253.44;;;5.99;100.00
19526;BME280;9907;42.676;26.348;2023-01-27T00:21:32;98238.38;;;5.99;100.00
19526;BME280;9907;42.676;26.348;2023-01-27T00:24:16;98244.94;;;5.84;100.00
19526;BME280;9907;42.676;26.348;2023-01-27T00:27:00;98251.34;;;5.81;100.00
19526;BME280;9907;42.676;26.348;2023-01-27T00:29:26;98272.06;;;5.87;100.00
19526;BME280;9907;42.676;26.348;2023-01-27T00:31:51;98248.94;;;5.90;100.00
19526;BME280;9907;42.676;26.348;2023-01-27T00:34:35;98231.34;;;5.88;100.00
19526;BME280;9907;42.676;26.348;2023-01-27T00:37:00;98237.47;;;5.89;100.00
19526;BME280;9907;42.676;26.348;2023-01-27T00:39:26;98222.16;;;5.93;100.00
19526;BME280;9907;42.676;26.348;2023-01-27T00:41:51;98243.63;;;5.90;100.00
19526;BME280;9907;42.676;26.348;2023-01-27T00:44:17;98251.31;;;5.93;100.00
19526;BME280;9907;42.676;26.348;2023-01-27T00:46:42;98237.38;;;5.91;100.00
19526;BME280;9907;42.676;26.348;2023-01-27T00:49:09;98230.00;;;5.94;100.00
19526;BME280;9907;42.676;26.348;2023-01-27T00:51:35;98237.22;;;5.92;100.00
19526;BME280;9907;42.676;26.348;2023-01-27T00:54:01;98237.44;;;6.00;100.00
19526;BME280;9907;42.676;26.348;2023-01-27T00:56:28;98239.22;;;6.00;100.00
19526;BME280;9907;42.676;26.348;2023-01-27T00:58:53;98239.69;;;6.05;100.00
19526;BME280;9907;42.676;26.348;2023-01-27T01:01:19;98227.41;;;6.04;100.00
19526;BME280;9907;42.676;26.348;2023-01-27T01:03:44;98228.13;;;6.06;100.00
19526;BME280;9907;42.676;26.348;2023-01-27T01:06:13;98228.63;;;6.00;100.00
19526;BME280;9907;42.676;26.348;2023-01-27T01:08:39;98237.06;;;6.05;100.00
19526;BME280;9907;42.676;26.348;2023-01-27T01:11:08;98225.72;;;6.03;100.00
19526;BME280;9907;42.676;26.348;2023-01-27T01:13:34;98203.81;;;6.01;100.00
19526;BME280;9907;42.676;26.348;2023-01-27T01:16:06;98220.41;;;6.03;100.00
19526;BME280;9907;42.676;26.348;2023-01-27T01:18:32;98212.59;;;6.01;100.00
19526;BME280;9907;42.676;26.348;2023-01-27T01:20:57;98212.47;;;6.03;100.00
19526;BME280;9907;42.676;26.348;2023-01-27T01:23:23;98210.81;;;6.02;100.00
19526;BME280;9907;42.676;26.348;2023-01-27T01:25:52;98203.22;;;5.97;100.00
19526;BME280;9907;42.676;26.348;2023-01-27T01:28:19;98204.78;;;6.00;100.00
19526;BME280;9907;42.676;26.348;2023-01-27T01:30:45;98207.44;;;6.00;100.00
19526;BME280;9907;42.676;26.348;2023-01-27T01:33:10;98204.78;;;6.00;100.00
19526;BME280;9907;42.676;26.348;2023-01-27T01:35:37;98202.13;;;6.00;100.00
19526;BME280;9907;42.676;26.348;2023-01-27T01:38:03;98191.50;;;6.00;100.00
19526;BME280;9907;42.676;26.348;2023-01-27T01:40:29;98175.34;;;6.03;100.00
19526;BME280;9907;42.676;26.348;2023-01-27T01:42:56;98192.47;;;5.99;100.00
19526;BME280;9907;42.676;26.348;2023-01-27T01:48:21;98177.31;;;6.01;100.00
19526;BME280;9907;42.676;26.348;2023-01-27T01:50:52;98176.47;;;6.00;100.00
19526;BME280;9907;42.676;26.348;2023-01-27T01:53:20;98183.56;;;6.00;100.00
19526;BME280;9907;42.676;26.348;2023-01-27T01:55:51;98176.56;;;5.99;100.00
19526;BME280;9907;42.676;26.348;2023-01-27T01:58:17;98149.25;;;5.98;100.00
19526;BME280;9907;42.676;26.348;2023-01-27T02:00:46;98149.00;;;6.01;100.00
19526;BME280;9907;42.676;26.348;2023-01-27T02:03:11;98157.63;;;6.03;100.00
19526;BME280;9907;42.676;26.348;2023-01-27T02:05:39;98149.41;;;6.06;100.00
19526;BME280;9907;42.676;26.348;2023-01-27T02:08:14;98146.91;;;6.05;100.00
19526;BME280;9907;42.676;26.348;2023-01-27T02:10:41;98153.91;;;6.06;100.00
19526;BME280;9907;42.676;26.348;2023-01-27T02:13:07;98154.59;;;6.08;100.00
19526;BME280;9907;42.676;26.348;2023-01-27T02:15:33;98139.66;;;6.07;100.00
19526;BME280;9907;42.676;26.348;2023-01-27T02:17:59;98131.69;;;6.07;100.00
19526;BME280;9907;42.676;26.348;2023-01-27T02:26:03;98111.22;;;6.09;100.00
19526;BME280;9907;42.676;26.348;2023-01-27T02:28:30;98113.03;;;6.08;100.00
19526;BME280;9907;42.676;26.348;2023-01-27T02:30:56;98134.09;;;6.10;100.00
19526;BME280;9907;42.676;26.348;2023-01-27T02:33:22;98167.59;;;6.11;100.00
19526;BME280;9907;42.676;26.348;2023-01-27T02:36:16;98153.09;;;6.15;100.00
19526;BME280;9907;42.676;26.348;2023-01-27T02:38:49;98132.03;;;6.13;100.00
19526;BME280;9907;42.676;26.348;2023-01-27T02:43:41;98086.25;;;6.11;100.00
19526;BME280;9907;42.676;26.348;2023-01-27T02:46:06;98095.72;;;6.14;100.00
19526;BME280;9907;42.676;26.348;2023-01-27T02:48:32;98104.69;;;6.13;100.00
19526;BME280;9907;42.676;26.348;2023-01-27T02:50:58;98097.41;;;6.15;100.00
19526;BME280;9907;42.676;26.348;2023-01-27T02:53:23;98092.28;;;6.13;100.00
19526;BME280;9907;42.676;26.348;2023-01-27T02:55:48;98086.81;;;6.15;100.00
19526;BME280;9907;42.676;26.348;2023-01-27T02:58:14;98075.25;;;6.16;100.00
19526;BME280;9907;42.676;26.348;2023-01-27T03:00:41;98088.50;;;6.16;100.00
19526;BME280;9907;42.676;26.348;2023-01-27T03:04:05;57875.59;;;-140.96;100.00
19526;BME280;9907;42.676;26.348;2023-01-27T03:07:31;57875.59;;;-140.96;100.00
19526;BME280;9907;42.676;26.348;2023-01-27T03:10:55;57875.59;;;-140.96;100.00
19526;BME280;9907;42.676;26.348;2023-01-27T03:14:22;57875.59;;;-140.96;100.00
19526;BME280;9907;42.676;26.348;2023-01-27T03:18:05;57875.59;;;-140.96;100.00
19526;BME280;9907;42.676;26.348;2023-01-27T03:21:43;57875.59;;;-140.96;100.00
19526;BME280;9907;42.676;26.348;2023-01-27T03:25:08;57875.59;;;-140.96;100.00
19526;BME280;9907;42.676;26.348;2023-01-27T03:28:32;57875.59;;;-140.96;100.00
19526;BME280;9907;42.676;26.348;2023-01-27T03:32:00;57875.59;;;-140.96;100.00
19526;BME280;9907;42.676;26.348;2023-01-27T03:35:24;57875.59;;;-140.96;100.00
19526;BME280;9907;42.676;26.348;2023-01-27T03:38:57;57875.59;;;-140.96;100.00
19526;BME280;9907;42.676;26.348;2023-01-27T03:42:40;57875.59;;;-140.96;100.00
19526;BME280;9907;42.676;26.348;2023-01-27T03:46:22;57875.59;;;-140.96;100.00
19526;BME280;9907;42.676;26.348;2023-01-27T03:49:51;57875.59;;;-140.96;100.00
19526;BME280;9907;42.676;26.348;2023-01-27T03:53:15;57875.59;;;-140.96;100.00
19526;BME280;9907;42.676;26.348;2023-01-27T03:56:39;57875.59;;;-140.96;100.00
19526;BME280;9907;42.676;26.348;2023-01-27T04:00:03;57875.59;;;-140.96;100.00
19526;BME280;9907;42.676;26.348;2023-01-27T04:03:31;57875.59;;;-140.96;100.00
19526;BME280;9907;42.676;26.348;2023-01-27T04:07:15;57875.59;;;-140.96;100.00
19526;BME280;9907;42.676;26.348;2023-01-27T04:10:43;57875.59;;;-140.96;100.00
19526;BME280;9907;42.676;26.348;2023-01-27T04:17:52;57875.59;;;-140.96;100.00
19526;BME280;9907;42.676;26.348;2023-01-27T04:21:16;57875.59;;;-140.96;100.00
19526;BME280;9907;42.676;26.348;2023-01-27T04:24:40;57875.59;;;-140.96;100.00
19526;BME280;9907;42.676;26.348;2023-01-27T04:28:05;57875.59;;;-140.96;100.00
19526;BME280;9907;42.676;26.348;2023-01-27T04:31:29;57875.59;;;-140.96;100.00
19526;BME280;9907;42.676;26.348;2023-01-27T04:34:55;57875.59;;;-140.96;100.00
19526;BME280;9907;42.676;26.348;2023-01-27T04:38:19;57875.59;;;-140.96;100.00
19526;BME280;9907;42.676;26.348;2023-01-27T04:41:43;57875.59;;;-140.96;100.00
19526;BME280;9907;42.676;26.348;2023-01-27T04:45:08;57875.59;;;-140.96;100.00
19526;BME280;9907;42.676;26.348;2023-01-27T04:48:32;57875.59;;;-140.96;100.00
19526;BME280;9907;42.676;26.348;2023-01-27T04:51:57;57875.59;;;-140.96;100.00
19526;BME280;9907;42.676;26.348;2023-01-27T04:55:21;57875.59;;;-140.96;100.00
19526;BME280;9907;42.676;26.348;2023-01-27T04:58:45;57875.59;;;-140.96;100.00
19526;BME280;9907;42.676;26.348;2023-01-27T05:02:09;57875.59;;;-140.96;100.00
19526;BME280;9907;42.676;26.348;2023-01-27T05:05:32;57875.59;;;-140.96;100.00
19526;BME280;9907;42.676;26.348;2023-01-27T05:09:00;57875.59;;;-140.96;100.00
19526;BME280;9907;42.676;26.348;2023-01-27T05:12:24;57875.59;;;-140.96;100.00
19526;BME280;9907;42.676;26.348;2023-01-27T05:15:48;57875.59;;;-140.96;100.00
19526;BME280;9907;42.676;26.348;2023-01-27T05:19:12;57875.59;;;-140.96;100.00
19526;BME280;9907;42.676;26.348;2023-01-27T05:22:36;57875.59;;;-140.96;100.00
19526;BME280;9907;42.676;26.348;2023-01-27T05:26:01;57875.59;;;-140.96;100.00
19526;BME280;9907;42.676;26.348;2023-01-27T05:29:25;57875.59;;;-140.96;100.00
19526;BME280;9907;42.676;26.348;2023-01-27T05:32:49;57875.59;;;-140.96;100.00
19526;BME280;9907;42.676;26.348;2023-01-27T05:36:14;57875.59;;;-140.96;100.00
19526;BME280;9907;42.676;26.348;2023-01-27T05:39:39;57875.59;;;-140.96;100.00
19526;BME280;9907;42.676;26.348;2023-01-27T05:43:03;57875.59;;;-140.96;100.00
19526;BME280;9907;42.676;26.348;2023-01-27T05:46:28;57875.59;;;-140.96;100.00
19526;BME280;9907;42.676;26.348;2023-01-27T05:49:53;57875.59;;;-140.96;100.00
19526;BME280;9907;42.676;26.348;2023-01-27T05:53:17;57875.59;;;-140.96;100.00
19526;BME280;9907;42.676;26.348;2023-01-27T05:56:41;57875.59;;;-140.96;100.00
19526;BME280;9907;42.676;26.348;2023-01-27T06:00:05;57875.59;;;-140.96;100.00
19526;BME280;9907;42.676;26.348;2023-01-27T06:03:29;57875.59;;;-140.96;100.00
19526;BME280;9907;42.676;26.348;2023-01-27T06:06:54;57875.59;;;-140.96;100.00
19526;BME280;9907;42.676;26.348;2023-01-27T06:10:18;57875.59;;;-140.96;100.00
19526;BME280;9907;42.676;26.348;2023-01-27T06:13:42;57875.59;;;-140.96;100.00
19526;BME280;9907;42.676;26.348;2023-01-27T06:17:07;57875.59;;;-140.96;100.00
19526;BME280;9907;42.676;26.348;2023-01-27T06:20:31;57875.59;;;-140.96;100.00
19526;BME280;9907;42.676;26.348;2023-01-27T06:23:55;57875.59;;;-140.96;100.00
19526;BME280;9907;42.676;26.348;2023-01-27T06:27:21;57875.59;;;-140.96;100.00
19526;BME280;9907;42.676;26.348;2023-01-27T06:30:45;57875.59;;;-140.96;100.00
19526;BME280;9907;42.676;26.348;2023-01-27T06:34:09;57875.59;;;-140.96;100.00
19526;BME280;9907;42.676;26.348;2023-01-27T06:37:33;57875.59;;;-140.96;100.00
19526;BME280;9907;42.676;26.348;2023-01-27T06:40:57;57875.59;;;-140.96;100.00
19526;BME280;9907;42.676;26.348;2023-01-27T06:44:21;57875.59;;;-140.96;100.00
19526;BME280;9907;42.676;26.348;2023-01-27T06:47:45;57875.59;;;-140.96;100.00
19526;BME280;9907;42.676;26.348;2023-01-27T06:51:09;57875.59;;;-140.96;100.00
19526;BME280;9907;42.676;26.348;2023-01-27T06:54:33;57875.59;;;-140.96;100.00
19526;BME280;9907;42.676;26.348;2023-01-27T06:57:57;57875.59;;;-140.96;100.00
19526;BME280;9907;42.676;26.348;2023-01-27T07:01:21;57875.59;;;-140.96;100.00
19526;BME280;9907;42.676;26.348;2023-01-27T07:04:45;57875.59;;;-140.96;100.00
19526;BME280;9907;42.676;26.348;2023-01-27T07:08:09;57875.59;;;-140.96;100.00
19526;BME280;9907;42.676;26.348;2023-01-27T07:11:33;57875.59;;;-140.96;100.00
19526;BME280;9907;42.676;26.348;2023-01-27T07:14:58;57875.59;;;-140.96;100.00
19526;BME280;9907;42.676;26.348;2023-01-27T07:18:22;57875.59;;;-140.96;100.00
19526;BME280;9907;42.676;26.348;2023-01-27T07:21:46;57875.59;;;-140.96;100.00
19526;BME280;9907;42.676;26.348;2023-01-27T07:25:10;57875.59;;;-140.96;100.00
19526;BME280;9907;42.676;26.348;2023-01-27T07:28:33;57875.59;;;-140.96;100.00
19526;BME280;9907;42.676;26.348;2023-01-27T07:31:59;57875.59;;;-140.96;100.00
19526;BME280;9907;42.676;26.348;2023-01-27T07:35:23;57875.59;;;-140.96;100.00
19526;BME280;9907;42.676;26.348;2023-01-27T07:38:50;57875.59;;;-140.96;100.00
19526;BME280;9907;42.676;26.348;2023-01-27T07:42:14;57875.59;;;-140.96;100.00
19526;BME280;9907;42.676;26.348;2023-01-27T07:45:38;57875.59;;;-140.96;100.00
19526;BME280;9907;42.676;26.348;2023-01-27T07:49:03;57875.59;;;-140.96;100.00
19526;BME280;9907;42.676;26.348;2023-01-27T07:52:27;57875.59;;;-140.96;100.00
19526;BME280;9907;42.676;26.348;2023-01-27T07:55:51;57875.59;;;-140.96;100.00
19526;BME280;9907;42.676;26.348;2023-01-27T07:59:15;57875.59;;;-140.96;100.00
19526;BME280;9907;42.676;26.348;2023-01-27T08:02:39;57875.59;;;-140.96;100.00
19526;BME280;9907;42.676;26.348;2023-01-27T08:06:07;57875.59;;;-140.96;100.00
19526;BME280;9907;42.676;26.348;2023-01-27T08:09:31;57875.59;;;-140.96;100.00
19526;BME280;9907;42.676;26.348;2023-01-27T08:12:55;57875.59;;;-140.96;100.00
19526;BME280;9907;42.676;26.348;2023-01-27T08:16:18;57875.59;;;-140.96;nan
19526;BME280;9907;42.676;26.348;2023-01-27T08:19:42;57875.59;;;-140.96;100.00
19526;BME280;9907;42.676;26.348;2023-01-27T08:23:05;57875.59;;;-140.96;100.00
19526;BME280;9907;42.676;26.348;2023-01-27T08:26:29;57875.59;;;-140.96;100.00
19526;BME280;9907;42.676;26.348;2023-01-27T08:29:53;57875.59;;;-140.96;100.00
19526;BME280;9907;42.676;26.348;2023-01-27T08:33:17;57875.59;;;-140.96;100.00
19526;BME280;9907;42.676;26.348;2023-01-27T08:36:41;57875.59;;;-140.96;100.00
19526;BME280;9907;42.676;26.348;2023-01-27T08:40:07;57875.59;;;-140.96;100.00
19526;BME280;9907;42.676;26.348;2023-01-27T08:43:31;57875.59;;;-140.96;100.00
19526;BME280;9907;42.676;26.348;2023-01-27T08:46:55;57875.59;;;-140.96;100.00
19526;BME280;9907;42.676;26.348;2023-01-27T08:50:19;57875.59;;;-140.96;100.00
19526;BME280;9907;42.676;26.348;2023-01-27T08:53:43;57875.59;;;-140.96;100.00
19526;BME280;9907;42.676;26.348;2023-01-27T08:57:11;57875.59;;;-140.96;100.00
19526;BME280;9907;42.676;26.348;2023-01-27T09:00:35;57875.59;;;-140.96;100.00
19526;BME280;9907;42.676;26.348;2023-01-27T09:03:59;57875.59;;;-140.96;100.00
19526;BME280;9907;42.676;26.348;2023-01-27T09:07:24;57875.59;;;-140.96;100.00
19526;BME280;9907;42.676;26.348;2023-01-27T09:10:48;57875.59;;;-140.96;100.00
19526;BME280;9907;42.676;26.348;2023-01-27T09:14:12;57875.59;;;-140.96;100.00
19526;BME280;9907;42.676;26.348;2023-01-27T09:17:36;57875.59;;;-140.96;100.00
19526;BME280;9907;42.676;26.348;2023-01-27T09:21:04;57875.59;;;-140.96;100.00
19526;BME280;9907;42.676;26.348;2023-01-27T09:24:29;57875.59;;;-140.96;100.00
19526;BME280;9907;42.676;26.348;2023-01-27T09:27:00;98088.50;;;6.16;100.00
19526;BME280;9907;42.676;26.348;2023-01-27T09:30:25;57875.59;;;-140.96;100.00
19526;BME280;9907;42.676;26.348;2023-01-27T09:33:02;98088.50;;;6.16;100.00
19526;BME280;9907;42.676;26.348;2023-01-27T09:36:10;98088.50;;;6.16;100.00
19526;BME280;9907;42.676;26.348;2023-01-27T09:39:30;57875.59;;;-140.96;100.00
19526;BME280;9907;42.676;26.348;2023-01-27T09:45:05;97860.34;;;7.58;100.00
19526;BME280;9907;42.676;26.348;2023-01-27T09:51:19;97860.34;;;7.58;100.00
19526;BME280;9907;42.676;26.348;2023-01-27T09:58:41;57875.59;;;-140.96;100.00
19526;BME280;9907;42.676;26.348;2023-01-27T10:05:43;57875.59;;;-140.96;100.00
19526;BME280;9907;42.676;26.348;2023-01-27T10:21:18;57875.59;;;-140.96;100.00
19526;BME280;9907;42.676;26.348;2023-01-27T10:28:23;57875.59;;;-140.96;100.00
19526;BME280;9907;42.676;26.348;2023-01-27T10:31:57;57875.59;;;-140.96;100.00
19526;BME280;9907;42.676;26.348;2023-01-27T10:36:05;57875.59;;;-140.96;100.00
19526;BME280;9907;42.676;26.348;2023-01-27T10:43:32;57875.59;;;-140.96;100.00
19526;BME280;9907;42.676;26.348;2023-01-27T10:49:50;97860.34;;;7.58;100.00
19526;BME280;9907;42.676;26.348;2023-01-27T10:57:05;57875.59;;;-140.96;100.00
19526;BME280;9907;42.676;26.348;2023-01-27T11:00:44;57875.59;;;-140.96;100.00
19526;BME280;9907;42.676;26.348;2023-01-27T11:04:40;57875.59;;;-140.96;100.00
19526;BME280;9907;42.676;26.348;2023-01-27T11:08:12;57875.59;;;-140.96;100.00
19526;BME280;9907;42.676;26.348;2023-01-27T11:11:40;57875.59;;;-140.96;100.00
19526;BME280;9907;42.676;26.348;2023-01-27T11:15:26;57875.59;;;-140.96;100.00
19526;BME280;9907;42.676;26.348;2023-01-27T11:19:03;57875.59;;;-140.96;100.00
19526;BME280;9907;42.676;26.348;2023-01-27T11:22:39;57875.59;;;-140.96;100.00
19526;BME280;9907;42.676;26.348;2023-01-27T11:34:38;97860.34;;;7.58;100.00
19526;BME280;9907;42.676;26.348;2023-01-27T11:38:24;57875.59;;;-140.96;100.00
19526;BME280;9907;42.676;26.348;2023-01-27T11:41:20;97860.34;;;-140.96;100.00
19526;BME280;9907;42.676;26.348;2023-01-27T11:43:52;97860.34;;;7.58;100.00
19526;BME280;9907;42.676;26.348;2023-01-27T11:46:24;97860.34;;;7.58;100.00
19526;BME280;9907;42.676;26.348;2023-01-27T11:49:49;57875.59;;;-140.96;100.00
19526;BME280;9907;42.676;26.348;2023-01-27T11:53:19;57875.59;;;-140.96;100.00
19526;BME280;9907;42.676;26.348;2023-01-27T12:01:04;57875.59;;;-140.96;100.00
19526;BME280;9907;42.676;26.348;2023-01-27T12:04:49;57875.59;;;-140.96;100.00
19526;BME280;9907;42.676;26.348;2023-01-27T12:07:59;97860.34;;;7.58;100.00
19526;BME280;9907;42.676;26.348;2023-01-27T12:10:38;97860.34;;;7.58;100.00
19526;BME280;9907;42.676;26.348;2023-01-27T12:13:26;97860.34;;;7.58;100.00
19526;BME280;9907;42.676;26.348;2023-01-27T12:19:03;97860.34;;;7.58;100.00
19526;BME280;9907;42.676;26.348;2023-01-27T12:21:48;97860.34;;;7.58;100.00
19526;BME280;9907;42.676;26.348;2023-01-27T12:24:38;97860.34;;;7.58;100.00
19526;BME280;9907;42.676;26.348;2023-01-27T12:27:05;97754.75;;;7.78;100.00
19526;BME280;9907;42.676;26.348;2023-01-27T12:29:49;97752.00;;;7.70;100.00
19526;BME280;9907;42.676;26.348;2023-01-27T12:32:33;97752.00;;;7.70;100.00
19526;BME280;9907;42.676;26.348;2023-01-27T12:35:48;75297.34;;;-140.96;100.00
19526;BME280;9907;42.676;26.348;2023-01-27T12:42:05;97752.00;;;7.70;100.00
19526;BME280;9907;42.676;26.348;2023-01-27T12:44:56;97752.00;;;-140.95;100.00
19526;BME280;9907;42.676;26.348;2023-01-27T12:53:33;97752.00;;;7.70;100.00
19526;BME280;9907;42.676;26.348;2023-01-27T12:56:21;97752.00;;;7.70;100.00
19526;BME280;9907;42.676;26.348;2023-01-27T13:01:30;97752.00;;;7.70;100.00
19526;BME280;9907;42.676;26.348;2023-01-27T13:04:22;97752.00;;;7.70;100.00
19526;BME280;9907;42.676;26.348;2023-01-27T13:15:38;97752.00;;;7.70;100.00
19526;BME280;9907;42.676;26.348;2023-01-27T13:18:34;97752.00;;;7.70;100.00
19526;BME280;9907;42.676;26.348;2023-01-27T13:21:35;97752.00;;;7.70;100.00
19526;BME280;9907;42.676;26.348;2023-01-27T13:24:37;97752.00;;;7.70;100.00
19526;BME280;9907;42.676;26.348;2023-01-27T13:27:19;118110.88;;;7.70;100.00
19526;BME280;9907;42.676;26.348;2023-01-27T13:29:59;97752.00;;;7.70;100.00
19526;BME280;9907;42.676;26.348;2023-01-27T13:33:35;57875.59;;;-140.96;100.00
19526;BME280;9907;42.676;26.348;2023-01-27T13:37:14;57875.59;;;-140.96;100.00
19526;BME280;9907;42.676;26.348;2023-01-27T13:40:02;97752.00;;;7.70;100.00
19526;BME280;9907;42.676;26.348;2023-01-27T13:42:49;97752.00;;;7.70;100.00
19526;BME280;9907;42.676;26.348;2023-01-27T13:46:21;57875.59;;;-140.96;100.00
19526;BME280;9907;42.676;26.348;2023-01-27T13:52:45;57875.59;;;-140.96;100.00
19526;BME280;9907;42.676;26.348;2023-01-27T13:55:40;97752.00;;;7.70;100.00
19526;BME280;9907;42.676;26.348;2023-01-27T14:01:41;97752.00;;;7.70;100.00
19526;BME280;9907;42.676;26.348;2023-01-27T14:18:50;57875.59;;;-140.96;100.00
19526;BME280;9907;42.676;26.348;2023-01-27T14:25:39;57875.59;;;-140.96;100.00
19526;BME280;9907;42.676;26.348;2023-01-27T14:32:24;57875.59;;;-140.96;100.00
19526;BME280;9907;42.676;26.348;2023-01-27T14:36:14;57875.59;;;-140.96;100.00
19526;BME280;9907;42.676;26.348;2023-01-27T14:43:42;57875.59;;;-140.96;100.00
19526;BME280;9907;42.676;26.348;2023-01-27T15:01:46;97752.00;;;14.11;100.00
19526;BME280;9907;42.676;26.348;2023-01-27T15:04:26;97752.00;;;7.70;100.00
19526;BME280;9907;42.676;26.348;2023-01-27T15:08:11;57875.59;;;-140.96;100.00
19526;BME280;9907;42.676;26.348;2023-01-27T15:11:45;57875.59;;;-140.96;100.00
19526;BME280;9907;42.676;26.348;2023-01-27T15:15:43;57875.59;;;-140.96;100.00
19526;BME280;9907;42.676;26.348;2023-01-27T15:27:18;57875.59;;;-140.96;100.00
19526;BME280;9907;42.676;26.348;2023-01-27T15:34:28;97752.00;;;-140.96;100.00
19526;BME280;9907;42.676;26.348;2023-01-27T15:37:21;97869.59;;;5.83;100.00
19526;BME280;9907;42.676;26.348;2023-01-27T15:40:23;97869.59;;;5.83;100.00
19526;BME280;9907;42.676;26.348;2023-01-27T15:46:46;57876.59;;;-140.96;100.00
19526;BME280;9907;42.676;26.348;2023-01-27T15:50:17;97869.59;;;5.83;100.00
19526;BME280;9907;42.676;26.348;2023-01-27T15:52:32;97869.59;;;5.83;100.00
19526;BME280;9907;42.676;26.348;2023-01-27T15:55:04;97869.59;;;5.83;100.00
19526;BME280;9907;42.676;26.348;2023-01-27T15:57:45;94345.50;;;5.83;100.00
19526;BME280;9907;42.676;26.348;2023-01-27T16:01:28;97869.59;;;5.83;100.00
19526;BME280;9907;42.676;26.348;2023-01-27T16:04:20;97869.59;;;5.83;100.00
19526;BME280;9907;42.676;26.348;2023-01-27T16:07:54;57875.59;;;-140.96;100.00
19526;BME280;9907;42.676;26.348;2023-01-27T16:14:45;57875.59;;;-140.96;100.00
19526;BME280;9907;42.676;26.348;2023-01-27T16:18:20;57875.59;;;-140.96;100.00
19526;BME280;9907;42.676;26.348;2023-01-27T16:20:59;97869.59;;;5.83;100.00
19526;BME280;9907;42.676;26.348;2023-01-27T16:24:47;57875.59;;;-140.96;100.00
19526;BME280;9907;42.676;26.348;2023-01-27T16:28:28;57875.59;;;-140.96;100.00
19526;BME280;9907;42.676;26.348;2023-01-27T16:31:53;57875.59;;;-140.96;100.00
19526;BME280;9907;42.676;26.348;2023-01-27T16:35:20;57875.59;;;-140.96;100.00
19526;BME280;9907;42.676;26.348;2023-01-27T16:38:37;97869.59;;;5.83;100.00
19526;BME280;9907;42.676;26.348;2023-01-27T16:41:58;97869.59;;;5.83;100.00
19526;BME280;9907;42.676;26.348;2023-01-27T16:45:29;57875.59;;;-140.96;100.00
19526;BME280;9907;42.676;26.348;2023-01-27T16:52:56;57875.59;;;-140.96;100.00
19526;BME280;9907;42.676;26.348;2023-01-27T16:59:47;57875.59;;;-140.96;100.00
19526;BME280;9907;42.676;26.348;2023-01-27T17:03:18;57875.59;;;-140.96;100.00
19526;BME280;9907;42.676;26.348;2023-01-27T17:06:48;57875.59;;;-140.96;100.00
19526;BME280;9907;42.676;26.348;2023-01-27T17:10:21;57875.59;;;-140.96;100.00
19526;BME280;9907;42.676;26.348;2023-01-27T17:13:58;57875.59;;;-140.96;100.00
19526;BME280;9907;42.676;26.348;2023-01-27T17:17:01;97869.59;;;5.83;100.00
19526;BME280;9907;42.676;26.348;2023-01-27T17:20:31;57875.59;;;-140.96;100.00
19526;BME280;9907;42.676;26.348;2023-01-27T17:23:59;57875.59;;;-140.96;100.00
19526;BME280;9907;42.676;26.348;2023-01-27T17:27:26;57875.59;;;-140.96;100.00
19526;BME280;9907;42.676;26.348;2023-01-27T17:31:04;57875.59;;;-140.96;100.00
19526;BME280;9907;42.676;26.348;2023-01-27T17:34:29;57875.59;;;-140.96;100.00
19526;BME280;9907;42.676;26.348;2023-01-27T17:38:12;57875.59;;;-140.96;100.00
19526;BME280;9907;42.676;26.348;2023-01-27T17:41:40;57875.59;;;-140.96;100.00
19526;BME280;9907;42.676;26.348;2023-01-27T17:45:25;57875.59;;;-140.96;100.00
19526;BME280;9907;42.676;26.348;2023-01-27T17:48:54;57875.59;;;-140.96;100.00
19526;BME280;9907;42.676;26.348;2023-01-27T17:52:24;57875.59;;;-140.96;100.00
19526;BME280;9907;42.676;26.348;2023-01-27T17:55:50;57875.59;;;-140.96;100.00
19526;BME280;9907;42.676;26.348;2023-01-27T17:59:19;57875.59;;;-140.96;100.00
19526;BME280;9907;42.676;26.348;2023-01-27T18:02:50;57875.59;;;-140.96;100.00
19526;BME280;9907;42.676;26.348;2023-01-27T18:06:19;57875.59;;;-140.96;100.00
19526;BME280;9907;42.676;26.348;2023-01-27T18:09:52;57875.59;;;-140.96;100.00
19526;BME280;9907;42.676;26.348;2023-01-27T18:17:19;57875.59;;;-140.96;100.00
19526;BME280;9907;42.676;26.348;2023-01-27T18:24:27;57875.59;;;-140.96;100.00
19526;BME280;9907;42.676;26.348;2023-01-27T18:27:52;57875.59;;;-140.96;100.00
19526;BME280;9907;42.676;26.348;2023-01-27T18:34:46;57875.59;;;-140.96;100.00
19526;BME280;9907;42.676;26.348;2023-01-27T18:38:23;57875.59;;;-140.96;100.00
19526;BME280;9907;42.676;26.348;2023-01-27T18:41:48;57875.59;;;-140.96;100.00
19526;BME280;9907;42.676;26.348;2023-01-27T18:45:12;57875.59;;;-140.96;100.00
19526;BME280;9907;42.676;26.348;2023-01-27T18:48:36;57875.59;;;-140.96;100.00
19526;BME280;9907;42.676;26.348;2023-01-27T18:52:09;57875.59;;;-140.96;100.00
19526;BME280;9907;42.676;26.348;2023-01-27T18:55:33;57875.59;;;-140.96;100.00
19526;BME280;9907;42.676;26.348;2023-01-27T18:58:57;57875.59;;;-140.96;100.00
19526;BME280;9907;42.676;26.348;2023-01-27T19:02:24;57875.59;;;-140.96;100.00
19526;BME280;9907;42.676;26.348;2023-01-27T19:05:48;57875.59;;;-140.96;100.00
19526;BME280;9907;42.676;26.348;2023-01-27T19:09:14;57875.59;;;-140.96;100.00